Alvin, WI

1:18 AM CDT on September 23, 2014 (GMT -0500)
Argonne, WI | Change Station
CLOSE
Current Station
Personal Weather Station
Location: Argonne, WI
Elevation: 1620 ft
Nearby Weather Stations

Elev 1620 ft 45.65 °N, 88.86 °W | Updated 38 seconds ago

Clear
Clear
49.1 °F
Feels Like 49 °F
N
3.0
Wind Variable Wind from SW
Gusts 4.0 mph

Today
High -- | Low -- °F
--% Chance of Precip.
Yesterday
High -- | Low -- °F
Precip. -- in
6:42 AM 6:50 PM
Waning Crescent, 1% visible
Pressure 30.17 in
Visibility 10.0 miles
Clouds Clear
Windchill 49 °F
Dew Point 47 °F
Humidity 94%
Rainfall 0.00 in
Snow Depth Not available.
UV 0 out of 12
Pollen 3.20 out of 12
Air Quality Not available.
Flu Activity Not available.
METAR KIMT 230554Z AUTO 00000KT 10SM CLR 09/08 A3015 RMK AO2 SLP214 T00940078 10161 20089 402001006 51004

More Conditions Fewer Conditions

Pressure 30.17 in
Visibility 10.0 miles
Clouds Clear
Windchill 49 °F
Dew Point 47 °F
Humidity 94%
Rainfall 0.00 in
Snow Depth Not available.
UV 0 out of 12
Pollen 3.20 out of 12
Air Quality Not available.
Flu Activity Not available.
METAR KIMT 230554Z AUTO 00000KT 10SM CLR 09/08 A3015 RMK AO2 SLP214 T00940078 10161 20089 402001006 51004

More Conditions Fewer Conditions

10-Day Weather Forecast

Almanac

Astronomy

Sep. 23, 2014 Rise Set
Actual Time 6:42 AM CDT 6:50 PM CDT
Civil Twilight 6:13 AM CDT 7:19 PM CDT
Nautical Twilight 5:38 AM CDT 7:54 PM CDT
Astronomical Twilight 5:02 AM CDT 8:30 PM CDT
Moon 6:06 AM CDT 6:28 PM CDT
Length of Visible Light 13h 06m
Length of Day
12h 07m
Tomorrow will be 3m 14s shorter.
Waning Crescent, 1% of the Moon is Illuminated
Today
Waning Crescent
Sep 24
New
Oct 1
First Quarter
Oct 8
Full
Oct 15
Last Quarter

Today's Extremes

State Highs State Lows

Community

WunderPhotos

Upload Photos

1,755,608 photos uploaded!

Nearby

Snow Depth

Station Depth Elevation
No new snow has been reported.

Earthquake Activity

City Distance Mag. Time & Date
No recent earthquake activity has been reported nearby.
Minimum magnitude displayed is 2.5.

Coastal Water Temperatures

Place Temperature
No Stations Reporting

Nearby Weather Stations